createdAt,value
2022-12-26T00:02:05.289Z,11.00
2022-12-26T00:07:09.931Z,13.20
2022-12-26T00:12:13.181Z,10.73
2022-12-26T00:17:16.499Z,13.17
2022-12-26T00:22:21.189Z,12.18
2022-12-26T00:27:24.461Z,13.30
2022-12-26T00:32:27.757Z,11.67
2022-12-26T00:37:32.390Z,11.67
2022-12-26T00:42:35.631Z,12.35
2022-12-26T00:47:39.057Z,11.18
2022-12-26T00:52:44.006Z,13.93
2022-12-26T00:57:47.309Z,14.45
2022-12-26T01:02:50.745Z,10.73
2022-12-26T01:08:21.146Z,11.47
2022-12-26T01:13:19.306Z,10.30
2022-12-26T01:18:23.293Z,10.70
2022-12-26T01:23:28.045Z,10.07
2022-12-26T01:28:31.363Z,10.48
2022-12-26T01:33:34.950Z,9.93
2022-12-26T01:38:39.777Z,9.53
2022-12-26T01:43:54.538Z,9.00
2022-12-26T01:49:00.797Z,9.15
2022-12-26T01:54:40.391Z,7.55
2022-12-26T01:59:34.644Z,9.13
2022-12-26T02:04:59.478Z,10.05
2022-12-26T02:10:04.991Z,10.68
2022-12-26T02:15:11.423Z,7.68
2022-12-26T02:20:20.271Z,9.40
2022-12-26T02:25:48.135Z,7.95
2022-12-26T02:30:57.223Z,8.75
2022-12-26T02:36:27.834Z,10.90
2022-12-26T02:41:41.918Z,9.85
2022-12-26T02:47:04.628Z,9.73
2022-12-26T02:52:36.741Z,9.67
2022-12-26T02:58:05.872Z,8.23
2022-12-26T03:03:32.182Z,9.57
2022-12-26T03:08:56.098Z,10.30
2022-12-26T03:14:08.731Z,8.20
2022-12-26T03:19:16.371Z,9.37
2022-12-26T03:24:19.887Z,11.73
2022-12-26T03:29:42.800Z,11.30
2022-12-26T03:34:47.434Z,9.00
2022-12-26T03:40:17.528Z,12.23
2022-12-26T03:45:45.683Z,12.60
2022-12-26T03:51:11.687Z,11.07
2022-12-26T03:56:38.696Z,13.73
2022-12-26T04:02:02.460Z,11.73
2022-12-26T04:07:30.525Z,11.83
2022-12-26T04:12:52.672Z,11.17
2022-12-26T04:18:18.927Z,10.77
2022-12-26T04:23:50.096Z,10.77
2022-12-26T04:29:10.998Z,10.63
2022-12-26T04:34:39.012Z,9.43
2022-12-26T04:40:04.658Z,10.30
2022-12-26T04:45:10.023Z,10.90
2022-12-26T04:50:13.405Z,11.85
2022-12-26T04:55:18.574Z,12.52
2022-12-26T05:00:22.012Z,12.00
2022-12-26T05:05:41.962Z,10.82
2022-12-26T05:10:46.804Z,10.95
2022-12-26T05:16:07.366Z,12.80
2022-12-26T05:21:31.541Z,11.30
2022-12-26T05:26:53.796Z,11.35
2022-12-26T05:31:57.128Z,14.07
2022-12-26T05:37:00.930Z,11.57
2022-12-26T05:42:05.736Z,11.85
2022-12-26T05:47:08.929Z,13.43
2022-12-26T05:52:12.177Z,11.10
2022-12-26T05:57:16.808Z,12.90
2022-12-26T06:02:20.211Z,12.77
2022-12-26T06:07:23.697Z,11.83
2022-12-26T06:12:28.314Z,13.40
2022-12-26T06:17:31.652Z,12.57
2022-12-26T06:22:34.881Z,12.05
2022-12-26T06:27:39.516Z,12.60
2022-12-26T06:32:42.795Z,14.05
2022-12-26T06:37:46.037Z,12.05
2022-12-26T06:42:50.923Z,14.35
2022-12-26T06:47:54.593Z,13.53
2022-12-26T06:52:57.890Z,11.25
2022-12-26T06:58:02.592Z,14.63
2022-12-26T07:03:05.956Z,14.05
2022-12-26T07:08:09.228Z,14.10
2022-12-26T07:13:13.829Z,11.75
2022-12-26T07:18:17.093Z,15.00
2022-12-26T07:23:20.342Z,12.30
2022-12-26T07:28:24.956Z,12.73
2022-12-26T07:33:29.817Z,12.40
2022-12-26T07:38:34.560Z,15.98
2022-12-26T07:43:39.199Z,16.37
2022-12-26T07:48:42.484Z,14.90
2022-12-26T07:53:45.862Z,16.35
2022-12-26T07:58:51.622Z,13.33
2022-12-26T08:03:54.921Z,13.82
2022-12-26T08:08:58.184Z,13.25
2022-12-26T08:14:03.111Z,12.82
2022-12-26T08:19:06.557Z,11.27
2022-12-26T08:24:09.901Z,12.70
2022-12-26T08:29:14.598Z,10.70
2022-12-26T08:34:17.858Z,10.38
2022-12-26T08:39:21.120Z,8.90
2022-12-26T08:44:27.899Z,15.57
2022-12-26T08:49:31.884Z,9.45
2022-12-26T08:54:35.310Z,9.70
2022-12-26T08:59:39.961Z,8.67
2022-12-26T09:04:43.219Z,10.23
2022-12-26T09:09:47.477Z,8.18
2022-12-26T09:14:52.209Z,10.90
2022-12-26T09:19:55.476Z,10.00
2022-12-26T09:24:58.814Z,8.03
2022-12-26T09:30:03.579Z,6.20
2022-12-26T09:35:08.316Z,7.22
2022-12-26T09:40:23.135Z,7.50
2022-12-26T09:45:37.158Z,8.60
2022-12-26T09:50:43.369Z,8.95
2022-12-26T09:55:51.910Z,8.13
2022-12-26T10:01:01.383Z,8.48
2022-12-26T10:06:15.751Z,8.53
2022-12-26T10:11:26.491Z,9.23
2022-12-26T10:16:44.620Z,6.75
2022-12-26T10:21:55.226Z,8.45
2022-12-26T10:27:04.106Z,9.75
2022-12-26T10:32:14.450Z,6.87
2022-12-26T10:37:24.397Z,5.87
2022-12-26T10:42:32.000Z,5.10
2022-12-26T10:47:40.233Z,6.30
2022-12-26T10:52:43.606Z,7.33
2022-12-26T10:57:51.316Z,7.40
2022-12-26T11:03:14.866Z,8.98
2022-12-26T11:08:21.027Z,10.38
2022-12-26T11:13:25.052Z,16.90
2022-12-26T11:18:35.820Z,12.98
2022-12-26T11:23:39.263Z,8.00
2022-12-26T11:28:42.634Z,8.73
2022-12-26T11:33:48.341Z,9.93
2022-12-26T11:38:56.887Z,9.20
2022-12-26T11:44:05.662Z,11.07
2022-12-26T11:49:25.995Z,10.90
2022-12-26T11:54:37.481Z,13.00
2022-12-26T11:59:41.390Z,13.45
2022-12-26T12:04:47.277Z,13.65
2022-12-26T12:09:56.103Z,14.50
2022-12-26T12:15:10.416Z,9.27
2022-12-26T12:20:30.203Z,8.27
2022-12-26T12:25:53.833Z,9.90
2022-12-26T12:31:06.079Z,11.07
2022-12-26T12:36:13.997Z,6.97
2022-12-26T12:41:36.397Z,11.25
2022-12-26T12:46:51.177Z,11.87
2022-12-26T12:52:07.003Z,11.38
2022-12-26T12:57:18.082Z,8.90
2022-12-26T13:02:30.396Z,10.27
2022-12-26T13:07:46.950Z,10.77
2022-12-26T13:12:51.843Z,9.38
2022-12-26T13:18:01.826Z,10.07
2022-12-26T13:23:28.685Z,14.18
2022-12-26T13:28:37.535Z,13.55
2022-12-26T13:33:43.645Z,13.70
2022-12-26T13:39:23.752Z,10.93
2022-12-26T13:44:28.959Z,10.43
2022-12-26T13:49:36.477Z,15.48
2022-12-26T13:55:18.912Z,10.77
2022-12-26T14:00:41.587Z,12.20
2022-12-26T14:06:10.478Z,10.63
2022-12-26T14:11:29.647Z,7.88
2022-12-26T14:16:44.551Z,8.80
2022-12-26T14:21:55.701Z,8.18
2022-12-26T14:27:19.426Z,9.25
2022-12-26T14:32:35.282Z,8.32
2022-12-26T14:37:49.526Z,10.60
2022-12-26T14:43:31.206Z,7.20
2022-12-26T14:48:50.462Z,8.57
2022-12-26T14:54:14.362Z,6.00
2022-12-26T14:59:28.445Z,10.17
2022-12-26T15:04:52.654Z,7.50
2022-12-26T15:10:19.033Z,4.97
2022-12-26T15:15:41.708Z,4.17
2022-12-26T15:21:19.458Z,4.90
2022-12-26T15:27:02.495Z,5.70
2022-12-26T15:32:15.906Z,4.97
2022-12-26T15:37:46.609Z,6.13
2022-12-26T15:42:59.996Z,4.30
2022-12-26T15:48:11.679Z,3.88
2022-12-26T15:53:26.519Z,3.35
2022-12-26T15:58:47.793Z,4.65
2022-12-26T16:03:56.279Z,3.97
2022-12-26T16:09:21.008Z,3.42
2022-12-26T16:14:30.290Z,4.00
2022-12-26T16:19:33.512Z,4.90
2022-12-26T16:24:40.734Z,3.13
2022-12-26T16:29:47.959Z,6.37
2022-12-26T16:34:51.472Z,4.30
2022-12-26T16:40:18.104Z,2.22
2022-12-26T16:45:23.284Z,5.47
2022-12-26T16:50:28.734Z,3.33
2022-12-26T16:55:39.883Z,5.35
2022-12-26T17:00:52.627Z,5.00
2022-12-26T17:05:57.318Z,3.85
2022-12-26T17:11:02.061Z,5.93
2022-12-26T17:16:10.701Z,7.97
2022-12-26T17:21:32.801Z,2.88
2022-12-26T17:26:39.586Z,4.00
2022-12-26T17:31:45.626Z,5.17
2022-12-26T17:42:14.763Z,3.42
2022-12-26T17:47:22.491Z,4.32
2022-12-26T17:52:29.162Z,3.83
2022-12-26T17:57:33.870Z,3.50
2022-12-26T18:02:37.217Z,3.17
2022-12-26T18:07:41.115Z,4.37
2022-12-26T18:12:45.771Z,2.03
2022-12-26T18:17:50.991Z,2.27
2022-12-26T18:22:54.492Z,2.53
2022-12-26T18:28:00.542Z,2.60
2022-12-26T18:33:03.878Z,2.33
2022-12-26T18:38:07.616Z,3.78
2022-12-26T18:43:12.345Z,3.25
2022-12-26T18:48:17.278Z,2.70
2022-12-26T18:53:20.515Z,1.70
2022-12-26T18:58:25.154Z,1.30
2022-12-26T19:03:28.363Z,5.32
2022-12-26T19:08:32.365Z,1.10
2022-12-26T19:13:37.235Z,2.10
2022-12-26T19:18:40.535Z,1.30
2022-12-26T19:23:47.481Z,0.95
2022-12-26T19:28:54.404Z,1.50
2022-12-26T19:33:58.803Z,1.77
2022-12-26T19:39:02.041Z,1.67
2022-12-26T19:44:06.867Z,1.02
2022-12-26T19:49:10.107Z,0.80
2022-12-26T19:54:13.353Z,1.60
2022-12-26T19:59:18.016Z,1.33
2022-12-26T20:04:21.284Z,0.75
2022-12-26T20:09:24.548Z,1.98
2022-12-26T20:14:29.481Z,0.65
2022-12-26T20:19:32.743Z,1.10
2022-12-26T20:24:36.297Z,0.53
2022-12-26T20:29:41.094Z,0.65
2022-12-26T20:34:44.347Z,2.00
2022-12-26T20:39:47.594Z,1.03
2022-12-26T20:44:52.268Z,2.60
2022-12-26T20:49:55.570Z,1.10
2022-12-26T20:54:58.859Z,0.90
2022-12-26T21:00:03.748Z,1.50
2022-12-26T21:05:07.668Z,1.27
2022-12-26T21:10:11.951Z,1.80
2022-12-26T21:15:16.694Z,1.50
2022-12-26T21:20:19.961Z,1.77
2022-12-26T21:25:23.356Z,2.33
2022-12-26T21:30:28.044Z,0.60
2022-12-26T21:35:31.526Z,2.23
2022-12-26T21:40:34.779Z,0.75
2022-12-26T21:45:41.669Z,1.05
2022-12-26T21:50:46.028Z,1.87
2022-12-26T21:55:49.510Z,1.30
2022-12-26T22:00:54.175Z,0.60
2022-12-26T22:05:57.633Z,0.50
2022-12-26T22:11:23.474Z,0.50
2022-12-26T22:16:29.912Z,1.08
2022-12-26T22:21:33.385Z,1.27
2022-12-26T22:26:36.605Z,0.90
2022-12-26T22:31:41.260Z,1.48
2022-12-26T22:36:44.667Z,0.60
2022-12-26T22:41:48.167Z,0.80
2022-12-26T22:46:52.901Z,0.50
2022-12-26T22:51:56.284Z,0.30
2022-12-26T22:56:59.552Z,2.15
2022-12-26T23:02:04.393Z,0.77
2022-12-26T23:07:08.181Z,1.35
2022-12-26T23:12:35.501Z,0.70
2022-12-26T23:18:01.922Z,0.55
2022-12-26T23:23:05.666Z,1.38
2022-12-26T23:28:26.103Z,0.63
2022-12-26T23:33:31.014Z,1.30
2022-12-26T23:38:34.271Z,1.42
2022-12-26T23:43:37.552Z,0.90
2022-12-26T23:48:42.219Z,0.60
2022-12-26T23:53:45.486Z,1.05
2022-12-26T23:58:48.799Z,0.75
